Time;durP1;ratioP1;P1;durP2;ratioP2;P2;SDS_P1;SDS_P2;PMS_P1;PMS_P2;Temp;Humidity;BMP_temperature;BMP_pressure;BME280_temperature;BME280_humidity;BME280_pressure;Samples;Min_cycle;Max_cycle;Signal;HPM_P1;HPM_P2
2023/06/03 00:00:50;;;;;;;7.28;6.38;;;12.60;76.60;;;;;;2067429;28;20234;-68
2023/06/03 00:01:51;;;;;;;7.60;6.73;;;12.50;76.20;;;;;;2067258;28;20260;-68
2023/06/03 00:02:56;;;;;;;7.80;7.20;;;12.70;76.50;;;;;;2061381;28;20253;-68
2023/06/03 00:03:57;;;;;;;10.07;9.35;;;12.60;76.50;;;;;;2052859;28;20222;-68
2023/06/03 00:05:01;;;;;;;8.07;5.88;;;12.70;76.40;;;;;;2062894;28;20234;-68
2023/06/03 00:06:01;;;;;;;8.93;6.25;;;12.70;76.10;;;;;;2057808;28;20629;-68
2023/06/03 00:07:02;;;;;;;6.53;5.93;;;12.60;76.20;;;;;;2060377;28;20232;-68
2023/06/03 00:08:03;;;;;;;7.50;6.27;;;12.60;76.50;;;;;;2061968;28;20605;-68
2023/06/03 00:09:04;;;;;;;7.73;6.90;;;12.60;76.30;;;;;;2054246;28;20172;-68
2023/06/03 00:10:05;;;;;;;6.13;5.63;;;12.50;76.50;;;;;;2060332;28;20594;-68
2023/06/03 00:11:06;;;;;;;5.53;5.03;;;12.50;76.50;;;;;;2062286;28;20187;-67
2023/06/03 00:12:10;;;;;;;6.80;6.15;;;12.50;77.80;;;;;;2051224;28;20187;-68
2023/06/03 00:13:10;;;;;;;7.30;6.40;;;12.50;76.40;;;;;;2051583;28;20679;-67
2023/06/03 00:14:11;;;;;;;7.63;6.93;;;12.60;88.20;;;;;;2058616;28;20186;-67
2023/06/03 00:15:12;;;;;;;8.50;7.00;;;12.50;77.30;;;;;;2063049;28;20198;-67
2023/06/03 00:16:13;;;;;;;9.10;8.27;;;12.50;76.90;;;;;;2067177;28;20199;-68
2023/06/03 00:17:15;;;;;;;7.90;5.38;;;12.40;77.20;;;;;;2070136;28;20684;-67
2023/06/03 00:18:16;;;;;;;9.35;8.40;;;12.40;77.20;;;;;;2055127;28;20569;-67
2023/06/03 00:19:18;;;;;;;6.13;4.90;;;12.50;77.20;;;;;;2057430;28;20229;-68
2023/06/03 00:20:19;;;;;;;8.45;7.65;;;12.50;76.90;;;;;;2056508;28;20226;-67
2023/06/03 00:21:21;;;;;;;9.13;7.63;;;12.50;77.40;;;;;;2057165;28;20234;-67
2023/06/03 00:22:22;;;;;;;7.78;7.00;;;12.60;77.40;;;;;;2056418;28;20246;-67
2023/06/03 00:23:23;;;;;;;7.77;7.07;;;12.40;77.80;;;;;;2062126;28;20871;-67
2023/06/03 00:24:24;;;;;;;6.83;6.23;;;12.40;89.30;;;;;;2064206;28;20237;-67
2023/06/03 00:25:24;;;;;;;6.97;6.27;;;12.40;77.50;;;;;;2069710;28;20979;-67
2023/06/03 00:26:25;;;;;;;7.70;5.60;;;12.50;77.40;;;;;;2056777;28;20257;-68
2023/06/03 00:27:26;;;;;;;8.48;7.68;;;12.50;77.80;;;;;;2068733;28;20229;-67
2023/06/03 00:28:27;;;;;;;5.97;5.03;;;12.40;77.70;;;;;;2064650;28;20229;-67
2023/06/03 00:29:28;;;;;;;5.70;5.03;;;12.30;78.00;;;;;;2061528;28;20337;-68
2023/06/03 00:30:28;;;;;;;5.77;5.23;;;12.30;78.40;;;;;;2057561;28;20294;-68
2023/06/03 00:31:29;;;;;;;7.57;6.97;;;12.30;78.20;;;;;;2063282;28;20272;-68
2023/06/03 00:32:30;;;;;;;8.97;7.10;;;12.20;78.10;;;;;;2059248;28;20263;-67
2023/06/03 00:33:31;;;;;;;7.90;7.20;;;12.20;78.20;;;;;;2060989;28;20238;-68
2023/06/03 00:34:31;;;;;;;7.17;6.63;;;12.20;78.20;;;;;;2061928;28;20752;-67
2023/06/03 00:35:33;;;;;;;7.67;6.97;;;12.30;78.10;;;;;;2055269;28;20235;-68
2023/06/03 00:36:35;;;;;;;8.52;7.72;;;12.30;77.80;;;;;;2060113;28;20245;-67
2023/06/03 00:37:36;;;;;;;6.35;5.75;;;12.40;77.80;;;;;;2067016;28;20237;-68
2023/06/03 00:38:37;;;;;;;5.88;5.10;;;12.30;78.10;;;;;;2059224;28;20234;-68
2023/06/03 00:39:38;;;;;;;9.30;8.60;;;12.30;77.90;;;;;;2054848;28;20253;-67
2023/06/03 00:40:39;;;;;;;9.13;7.67;;;12.30;77.80;;;;;;2051823;28;20630;-68
2023/06/03 00:41:39;;;;;;;7.80;5.93;;;12.40;78.40;;;;;;2057508;28;20285;-68
2023/06/03 00:42:40;;;;;;;6.93;4.67;;;12.40;77.20;;;;;;2061035;28;20665;-68
2023/06/03 00:43:41;;;;;;;7.73;6.83;;;12.40;78.30;;;;;;2059296;28;20252;-68
2023/06/03 00:44:42;;;;;;;7.63;6.63;;;12.40;78.10;;;;;;2058843;28;20238;-67
2023/06/03 00:45:42;;;;;;;10.07;6.83;;;12.40;77.70;;;;;;2062717;28;20270;-68
2023/06/03 00:46:43;;;;;;;8.30;6.57;;;12.50;77.20;;;;;;2058879;28;20313;-68
2023/06/03 00:47:44;;;;;;;9.73;8.27;;;12.50;76.70;;;;;;2059315;28;20295;-68
2023/06/03 00:48:45;;;;;;;8.83;8.03;;;12.50;76.90;;;;;;2058626;28;20280;-68
2023/06/03 00:49:46;;;;;;;10.63;9.82;;;12.50;77.10;;;;;;2059244;28;20368;-68
2023/06/03 00:50:47;;;;;;;7.18;6.53;;;12.50;77.00;;;;;;2057651;28;20253;-68
2023/06/03 00:51:48;;;;;;;7.90;5.87;;;12.50;77.50;;;;;;2068325;28;20229;-68
2023/06/03 00:52:51;;;;;;;8.63;7.93;;;12.40;77.20;;;;;;2067417;28;20237;-68
2023/06/03 00:53:52;;;;;;;8.13;7.50;;;12.30;77.50;;;;;;2063325;28;20238;-67
2023/06/03 00:54:53;;;;;;;6.37;5.37;;;12.30;77.30;;;;;;2057913;28;20234;-68
2023/06/03 00:55:55;;;;;;;7.97;6.60;;;12.40;77.10;;;;;;2060467;28;20237;-68
2023/06/03 00:56:57;;;;;;;7.72;5.78;;;12.40;76.70;;;;;;2059118;28;20469;-68
2023/06/03 00:57:58;;;;;;;8.73;6.80;;;12.40;76.80;;;;;;2066733;28;20222;-68
2023/06/03 00:58:59;;;;;;;9.03;8.33;;;12.20;77.40;;;;;;2056796;28;20231;-68
2023/06/03 00:59:59;;;;;;;7.53;6.83;;;12.30;77.20;;;;;;2058031;28;20222;-69
2023/06/03 01:01:00;;;;;;;8.47;7.67;;;12.30;77.00;;;;;;2053474;28;20704;-68
2023/06/03 01:02:01;;;;;;;12.00;10.73;;;12.20;78.50;;;;;;2046706;28;20211;-68
2023/06/03 01:03:02;;;;;;;8.30;7.13;;;12.30;79.60;;;;;;2056608;28;20205;-68
2023/06/03 01:04:05;;;;;;;8.98;8.27;;;12.10;79.50;;;;;;2061648;28;20182;-68
2023/06/03 01:05:06;;;;;;;13.15;9.02;;;12.20;79.40;;;;;;2054087;28;20616;-68
2023/06/03 01:06:48;;;;;;;10.05;9.02;;;12.00;79.00;;;;;;2046464;28;20187;-68
2023/06/03 01:08:03;;;;;;;5.97;5.32;;;12.00;79.30;;;;;;2054993;28;20224;-68
2023/06/03 01:09:24;;;;;;;6.38;5.78;;;12.00;79.30;;;;;;2055536;28;20226;-68
2023/06/03 01:10:35;;;;;;;8.85;5.70;;;12.00;79.20;;;;;;2055719;28;20238;-68
2023/06/03 01:11:52;;;;;;;7.35;6.65;;;12.00;79.60;;;;;;2056245;28;20721;-68
2023/06/03 01:13:26;;;;;;;8.38;6.30;;;12.00;79.40;;;;;;2051139;28;20222;-68
2023/06/03 01:14:44;;;;;;;6.00;5.35;;;11.90;79.50;;;;;;2055935;28;20234;-67
2023/06/03 01:15:53;;;;;;;6.88;6.00;;;11.90;79.70;;;;;;2053155;28;20728;-68
2023/06/03 01:16:57;;;;;;;10.45;6.82;;;11.90;79.90;;;;;;2044138;28;20220;-68
2023/06/03 01:18:02;;;;;;;9.05;5.72;;;11.80;80.60;;;;;;2051096;28;20715;-68
2023/06/03 01:19:17;;;;;;;6.03;5.47;;;11.90;80.30;;;;;;2061949;28;20252;-69
2023/06/03 01:20:19;;;;;;;9.13;6.18;;;11.80;80.10;;;;;;2062340;28;20257;-68
2023/06/03 01:21:20;;;;;;;7.75;6.25;;;11.70;80.60;;;;;;2069478;28;20236;-68
2023/06/03 01:22:26;;;;;;;7.55;6.85;;;11.80;80.70;;;;;;2067043;28;20241;-68
2023/06/03 01:23:33;;;;;;;7.53;6.38;;;11.80;80.60;;;;;;2057497;28;20254;-68
2023/06/03 01:24:34;;;;;;;7.30;5.10;;;11.70;80.10;;;;;;2058887;28;20282;-68
2023/06/03 01:25:35;;;;;;;10.75;8.30;;;11.70;80.00;;;;;;2060127;28;21059;-68
2023/06/03 01:26:36;;;;;;;8.93;7.30;;;11.80;80.90;;;;;;2058530;28;20246;-68
2023/06/03 01:27:40;;;;;;;8.13;7.27;;;11.60;81.30;;;;;;2059963;28;20226;-68
2023/06/03 01:28:40;;;;;;;7.28;6.60;;;11.60;81.30;;;;;;2049788;28;20231;-68
2023/06/03 01:29:42;;;;;;;9.53;6.97;;;11.70;82.80;;;;;;2056566;28;20285;-68
2023/06/03 01:30:43;;;;;;;6.97;5.82;;;11.60;81.10;;;;;;2066585;28;20809;-68
2023/06/03 01:31:44;;;;;;;10.00;6.07;;;11.60;81.30;;;;;;2046642;28;20271;-68
2023/06/03 01:32:47;;;;;;;9.45;6.68;;;11.50;81.10;;;;;;2049509;28;20259;-67
2023/06/03 01:33:48;;;;;;;8.15;7.35;;;11.50;81.30;;;;;;2058776;28;20229;-67
2023/06/03 01:34:50;;;;;;;6.53;5.20;;;11.60;81.60;;;;;;2051398;28;20667;-67
2023/06/03 01:35:53;;;;;;;7.32;6.60;;;11.50;82.00;;;;;;2054321;28;20267;-68
2023/06/03 01:36:55;;;;;;;7.78;6.25;;;11.50;82.10;;;;;;2065010;28;21000;-68
2023/06/03 01:37:56;;;;;;;5.95;5.30;;;11.60;81.70;;;;;;2065265;28;20278;-68
2023/06/03 01:38:57;;;;;;;10.52;5.22;;;11.60;81.80;;;;;;2054780;28;20227;-68
2023/06/03 01:40:00;;;;;;;9.07;5.40;;;11.60;82.00;;;;;;2059745;28;20230;-68
2023/06/03 01:41:03;;;;;;;11.75;7.43;;;11.50;81.70;;;;;;2054005;28;20468;-68
2023/06/03 01:42:05;;;;;;;10.18;9.30;;;11.40;81.60;;;;;;2047819;28;20204;-69
2023/06/03 01:43:06;;;;;;;9.18;8.05;;;11.50;81.50;;;;;;2058433;28;20289;-68
2023/06/03 01:44:07;;;;;;;6.80;6.10;;;11.30;91.00;;;;;;2069553;28;20177;-68
2023/06/03 01:45:08;;;;;;;8.17;6.83;;;11.50;81.50;;;;;;2063337;28;20297;-69
2023/06/03 01:46:09;;;;;;;9.18;8.38;;;11.40;81.40;;;;;;2050901;28;20179;-68
2023/06/03 01:47:10;;;;;;;8.48;7.72;;;11.50;81.50;;;;;;2050477;28;20187;-68
2023/06/03 01:48:14;;;;;;;7.82;5.90;;;11.50;81.60;;;;;;2062820;28;20692;-68
2023/06/03 01:49:17;;;;;;;6.65;5.00;;;11.50;81.60;;;;;;2050202;28;20184;-68
2023/06/03 01:50:21;;;;;;;8.63;5.57;;;11.50;81.60;;;;;;2044981;28;20191;-68
2023/06/03 01:51:26;;;;;;;12.43;6.80;;;11.50;82.00;;;;;;2054582;28;20235;-68
2023/06/03 01:52:26;;;;;;;7.05;4.47;;;11.50;81.80;;;;;;2048057;28;20310;-68
2023/06/03 01:53:27;;;;;;;6.93;5.23;;;11.50;82.00;;;;;;2054899;28;20227;-68
2023/06/03 01:54:29;;;;;;;6.83;5.43;;;11.30;82.00;;;;;;2059343;28;20237;-67
2023/06/03 01:55:30;;;;;;;8.13;6.93;;;11.40;82.50;;;;;;2059805;28;20313;-68
2023/06/03 01:56:31;;;;;;;8.03;5.20;;;11.20;82.70;;;;;;2061586;28;20229;-67
2023/06/03 01:57:32;;;;;;;7.20;5.10;;;11.20;83.30;;;;;;2064018;28;20629;-68
2023/06/03 01:58:32;;;;;;;6.30;4.77;;;11.10;83.50;;;;;;2069337;28;20283;-68
2023/06/03 01:59:34;;;;;;;8.23;6.10;;;11.30;83.70;;;;;;2055418;28;20218;-68
2023/06/03 02:00:34;;;;;;;7.22;5.88;;;11.20;83.50;;;;;;2053158;28;20223;-68
2023/06/03 02:01:37;;;;;;;7.53;6.07;;;11.20;83.60;;;;;;2061072;28;20266;-68
2023/06/03 02:02:37;;;;;;;9.88;6.07;;;11.20;83.80;;;;;;2057691;28;20242;-68
2023/06/03 02:03:38;;;;;;;6.73;5.30;;;11.40;84.20;;;;;;2066691;28;20693;-67
2023/06/03 02:04:39;;;;;;;7.30;6.23;;;11.20;84.10;;;;;;2064175;28;20234;-68
2023/06/03 02:05:40;;;;;;;6.63;4.57;;;11.20;84.00;;;;;;2060199;28;20229;-68
2023/06/03 02:06:40;;;;;;;7.73;5.50;;;11.20;83.90;;;;;;2063973;28;20229;-67
2023/06/03 02:07:42;;;;;;;10.10;6.30;;;11.20;83.90;;;;;;2055844;28;20235;-68
2023/06/03 02:08:43;;;;;;;9.02;5.90;;;11.20;83.60;;;;;;2061897;28;20240;-68
2023/06/03 02:09:44;;;;;;;9.43;6.03;;;11.20;83.50;;;;;;2062190;28;20230;-68
2023/06/03 02:10:45;;;;;;;8.20;4.67;;;11.20;84.90;;;;;;2061757;28;20308;-68
2023/06/03 02:11:47;;;;;;;9.63;4.95;;;11.20;83.50;;;;;;2056004;28;20479;-67
2023/06/03 02:12:47;;;;;;;8.98;5.13;;;11.20;83.50;;;;;;2065460;28;20671;-68
2023/06/03 02:13:49;;;;;;;6.33;4.37;;;11.10;83.60;;;;;;2055582;28;20230;-67
2023/06/03 02:14:56;;;;;;;8.10;5.68;;;11.30;83.70;;;;;;2061263;28;20356;-68
2023/06/03 02:15:57;;;;;;;7.55;5.90;;;11.10;85.00;;;;;;2064301;28;21041;-68
2023/06/03 02:16:59;;;;;;;6.90;6.20;;;11.10;84.40;;;;;;2050118;28;20328;-68
2023/06/03 02:18:00;;;;;;;6.18;5.22;;;11.00;85.10;;;;;;2048788;28;20264;-69
2023/06/03 02:19:04;;;;;;;10.47;5.50;;;11.00;84.90;;;;;;2052654;28;20691;-68
2023/06/03 02:20:06;;;;;;;7.10;5.88;;;11.10;84.80;;;;;;2056368;28;20179;-68
2023/06/03 02:21:07;;;;;;;11.82;5.93;;;11.00;85.40;;;;;;2053641;28;20214;-68
2023/06/03 02:22:08;;;;;;;9.63;5.20;;;10.90;85.10;;;;;;2063888;28;20212;-68
2023/06/03 02:23:11;;;;;;;11.07;6.00;;;10.90;85.30;;;;;;2060915;28;20187;-68
2023/06/03 02:24:16;;;;;;;7.55;5.35;;;11.10;93.10;;;;;;2053270;28;20277;-67
2023/06/03 02:25:16;;;;;;;6.20;5.10;;;10.90;85.60;;;;;;2061872;28;20191;-68
2023/06/03 02:26:17;;;;;;;8.40;6.30;;;11.00;85.50;;;;;;2063872;28;20866;-68
2023/06/03 02:27:24;;;;;;;7.00;5.50;;;10.80;85.50;;;;;;2063643;28;20197;-68
2023/06/03 02:28:26;;;;;;;7.47;5.55;;;10.90;85.70;;;;;;2059246;28;20617;-67
2023/06/03 02:29:27;;;;;;;5.20;4.03;;;10.80;86.00;;;;;;2063024;28;20233;-68
2023/06/03 02:30:29;;;;;;;8.88;5.72;;;10.70;86.50;;;;;;2063684;28;20241;-68
2023/06/03 02:31:30;;;;;;;5.63;4.30;;;10.80;86.80;;;;;;2056324;28;20233;-68
2023/06/03 02:32:31;;;;;;;8.10;4.57;;;10.60;86.90;;;;;;2060910;28;20241;-68
2023/06/03 02:33:31;;;;;;;5.93;5.20;;;10.70;87.30;;;;;;2054564;28;20228;-68
2023/06/03 02:34:32;;;;;;;8.93;5.57;;;10.70;86.90;;;;;;2062970;28;20244;-68
2023/06/03 02:35:34;;;;;;;12.90;5.50;;;10.70;87.00;;;;;;2056878;28;20234;-68
2023/06/03 02:36:35;;;;;;;10.60;5.10;;;10.70;87.30;;;;;;2060626;28;20321;-68
2023/06/03 02:37:36;;;;;;;7.53;4.60;;;10.70;87.00;;;;;;2064993;28;20229;-68
2023/06/03 02:38:36;;;;;;;7.93;4.47;;;10.70;87.00;;;;;;2055620;28;21021;-68
2023/06/03 02:39:37;;;;;;;9.07;5.30;;;10.60;87.00;;;;;;2061800;28;20233;-68
2023/06/03 02:40:40;;;;;;;9.13;4.63;;;10.80;86.70;;;;;;2059692;28;20234;-68
2023/06/03 02:41:43;;;;;;;9.20;4.90;;;10.60;86.90;;;;;;2057900;28;20274;-68
2023/06/03 02:42:44;;;;;;;7.47;4.40;;;10.60;87.50;;;;;;2063673;28;20225;-68
2023/06/03 02:43:46;;;;;;;8.88;4.78;;;10.50;88.10;;;;;;2060315;28;20233;-68
2023/06/03 02:44:47;;;;;;;8.68;6.03;;;10.50;87.80;;;;;;2060310;28;20238;-68
2023/06/03 02:45:48;;;;;;;7.10;5.43;;;10.50;87.70;;;;;;2059759;28;20229;-68
2023/06/03 02:46:48;;;;;;;6.70;4.18;;;10.60;88.00;;;;;;2059782;28;20234;-68
2023/06/03 02:47:49;;;;;;;8.00;5.00;;;10.50;88.30;;;;;;2052935;28;20245;-68
2023/06/03 02:48:50;;;;;;;9.27;4.67;;;10.50;88.20;;;;;;2062609;28;20226;-67
2023/06/03 02:49:51;;;;;;;7.20;4.60;;;10.50;88.20;;;;;;2064104;28;20238;-68
2023/06/03 02:50:51;;;;;;;8.70;4.93;;;10.50;88.00;;;;;;2062032;28;20226;-68
2023/06/03 02:51:54;;;;;;;8.47;4.73;;;10.50;87.80;;;;;;2058216;28;20613;-68
2023/06/03 02:52:56;;;;;;;9.27;4.22;;;10.60;87.40;;;;;;2062669;28;20225;-68
2023/06/03 02:53:57;;;;;;;6.05;5.45;;;10.50;87.60;;;;;;2059143;28;20221;-67
2023/06/03 02:54:58;;;;;;;8.13;4.87;;;10.60;87.80;;;;;;2061860;28;20808;-69
2023/06/03 02:55:59;;;;;;;6.80;4.90;;;10.60;87.90;;;;;;2061774;28;20821;-68
2023/06/03 02:57:00;;;;;;;7.37;4.90;;;11.40;88.20;;;;;;2050323;28;20278;-69
2023/06/03 02:58:00;;;;;;;5.33;4.43;;;10.50;87.90;;;;;;2054999;28;20249;-69
2023/06/03 02:59:01;;;;;;;7.40;4.50;;;10.60;87.80;;;;;;2059016;28;20194;-69
2023/06/03 03:00:05;;;;;;;5.23;4.20;;;10.50;88.00;;;;;;2062369;28;20600;-68
2023/06/03 03:01:06;;;;;;;6.00;4.43;;;10.50;88.00;;;;;;2053538;28;20187;-68
2023/06/03 03:02:06;;;;;;;6.53;4.97;;;10.50;88.10;;;;;;2057842;28;20210;-68
2023/06/03 03:03:09;;;;;;;7.27;4.53;;;10.50;88.30;;;;;;2059880;28;20177;-68
2023/06/03 03:04:10;;;;;;;6.35;4.40;;;10.10;94.20;;;;;;2050058;28;20215;-68
2023/06/03 03:05:11;;;;;;;5.93;4.88;;;10.40;88.50;;;;;;2049692;28;20192;-68
2023/06/03 03:06:15;;;;;;;7.80;5.10;;;10.40;88.50;;;;;;2055881;28;20654;-68
2023/06/03 03:07:17;;;;;;;6.32;4.80;;;10.40;88.50;;;;;;2060677;28;20270;-68
2023/06/03 03:08:17;;;;;;;7.10;4.97;;;10.40;88.20;;;;;;2060316;28;20191;-68
2023/06/03 03:09:18;;;;;;;7.97;4.87;;;10.40;88.00;;;;;;2057056;28;20193;-68
2023/06/03 03:10:19;;;;;;;6.80;4.93;;;10.30;88.70;;;;;;2054671;28;20240;-68
2023/06/03 03:11:20;;;;;;;6.33;5.73;;;10.30;89.40;;;;;;2063374;28;20230;-68
2023/06/03 03:12:21;;;;;;;9.18;4.75;;;10.70;89.80;;;;;;2047806;28;20239;-68
2023/06/03 03:13:22;;;;;;;7.53;4.60;;;10.20;89.60;;;;;;2051926;28;20226;-68
2023/06/03 03:14:24;;;;;;;8.23;5.80;;;10.20;95.50;;;;;;2059091;28;20253;-67
2023/06/03 03:15:25;;;;;;;8.27;4.60;;;10.20;90.00;;;;;;2062138;28;20240;-68
2023/06/03 03:16:26;;;;;;;8.68;5.20;;;10.30;89.90;;;;;;2056568;28;20229;-68
2023/06/03 03:17:27;;;;;;;7.47;5.13;;;10.10;90.10;;;;;;2058381;28;20737;-68
2023/06/03 03:18:28;;;;;;;7.20;4.60;;;10.20;90.00;;;;;;2063505;28;20311;-67
2023/06/03 03:19:28;;;;;;;6.70;4.67;;;10.20;90.10;;;;;;2063832;28;20309;-68
2023/06/03 03:20:30;;;;;;;9.93;4.30;;;10.10;90.20;;;;;;2060328;28;20756;-68
2023/06/03 03:21:31;;;;;;;9.10;5.45;;;10.20;90.10;;;;;;2067830;28;20324;-68
2023/06/03 03:22:33;;;;;;;6.75;4.88;;;10.20;90.20;;;;;;2054879;28;20237;-68
2023/06/03 03:23:34;;;;;;;10.50;4.95;;;10.10;90.10;;;;;;2055950;28;20229;-68
2023/06/03 03:24:35;;;;;;;12.57;5.23;;;10.20;90.00;;;;;;2055126;28;20257;-67
2023/06/03 03:25:36;;;;;;;9.25;5.50;;;10.20;89.80;;;;;;2055350;28;21039;-68
2023/06/03 03:26:37;;;;;;;9.73;5.35;;;10.20;90.00;;;;;;2054285;28;20227;-67
2023/06/03 03:27:38;;;;;;;8.90;5.33;;;10.30;90.30;;;;;;2060744;28;20264;-67
2023/06/03 03:28:38;;;;;;;10.65;5.68;;;10.10;90.50;;;;;;2061396;28;20748;-67
2023/06/03 03:29:44;;;;;;;9.73;5.03;;;10.10;90.70;;;;;;2063483;28;20245;-68
2023/06/03 03:30:49;;;;;;;8.95;5.22;;;10.20;90.90;;;;;;2062242;28;20235;-68
2023/06/03 03:31:57;;;;;;;7.25;5.00;;;10.10;90.60;;;;;;2047279;28;20265;-68
2023/06/03 03:32:59;;;;;;;8.10;5.00;;;10.00;90.50;;;;;;2044443;28;20227;-68
2023/06/03 03:34:02;;;;;;;9.90;5.55;;;10.10;90.70;;;;;;2051324;28;20215;-69
2023/06/03 03:35:19;;;;;;;9.90;5.47;;;10.00;91.00;;;;;;2062905;28;20209;-68
2023/06/03 03:36:22;;;;;;;5.90;5.07;;;10.00;91.10;;;;;;2060994;28;20229;-68
2023/06/03 03:37:22;;;;;;;5.68;4.70;;;9.90;91.00;;;;;;2054588;28;20836;-68
2023/06/03 03:38:23;;;;;;;9.07;5.30;;;9.90;91.10;;;;;;2046145;28;20228;-68
2023/06/03 03:39:24;;;;;;;7.77;5.80;;;9.90;91.10;;;;;;2055522;28;20235;-68
2023/06/03 03:40:26;;;;;;;7.43;5.30;;;10.00;91.20;;;;;;2062333;28;20704;-68
2023/06/03 03:41:27;;;;;;;8.55;5.05;;;10.00;91.10;;;;;;2062074;28;20647;-68
2023/06/03 03:42:28;;;;;;;7.20;5.10;;;10.00;91.10;;;;;;2062332;28;20295;-68
2023/06/03 03:43:29;;;;;;;9.10;5.43;;;10.00;91.00;;;;;;2063365;28;20697;-67
2023/06/03 03:44:31;;;;;;;9.75;5.63;;;10.00;90.90;;;;;;2061520;28;20238;-68
2023/06/03 03:45:37;;;;;;;12.02;5.57;;;10.00;90.80;;;;;;2063352;28;20237;-68
2023/06/03 03:46:47;;;;;;;8.48;5.25;;;10.20;91.00;;;;;;2062906;28;20253;-68
2023/06/03 03:47:59;;;;;;;8.75;5.32;;;10.10;90.80;;;;;;2059222;28;20612;-67
2023/06/03 03:49:04;;;;;;;6.93;5.20;;;10.10;90.60;;;;;;2053629;28;21450;-69
2023/06/03 03:50:30;;;;;;;7.03;5.18;;;10.10;90.60;;;;;;2059559;28;20191;-68
2023/06/03 03:51:34;;;;;;;6.22;5.03;;;10.10;90.50;;;;;;2056188;28;20294;-68
2023/06/03 03:52:35;;;;;;;7.25;4.72;;;10.10;90.60;;;;;;2061140;28;20233;-68
2023/06/03 03:53:36;;;;;;;8.63;5.63;;;10.10;90.40;;;;;;2059642;28;20932;-67
2023/06/03 03:54:37;;;;;;;6.65;5.05;;;10.10;90.50;;;;;;2059955;28;20705;-68
2023/06/03 03:55:47;;;;;;;10.73;5.10;;;10.10;90.60;;;;;;2066248;28;20229;-68
2023/06/03 03:56:47;;;;;;;6.43;5.13;;;10.10;90.80;;;;;;2062350;28;20246;-68
2023/06/03 03:57:48;;;;;;;8.03;5.37;;;10.00;90.60;;;;;;2060033;28;20317;-67
2023/06/03 03:58:49;;;;;;;8.40;5.07;;;10.10;90.60;;;;;;2059351;28;20222;-68
2023/06/03 03:59:54;;;;;;;6.93;4.72;;;10.00;90.60;;;;;;2053461;28;21036;-67
2023/06/03 04:01:09;;;;;;;9.27;4.95;;;10.00;90.70;;;;;;2055431;28;20242;-67
2023/06/03 04:02:10;;;;;;;6.75;4.68;;;10.00;90.60;;;;;;2053563;28;20261;-68
2023/06/03 04:03:14;;;;;;;8.07;5.70;;;10.00;90.80;;;;;;2055383;28;20681;-68
2023/06/03 04:04:36;;;;;;;8.38;4.93;;;10.10;96.10;;;;;;2050795;28;20193;-68
2023/06/03 04:05:37;;;;;;;10.70;5.32;;;10.00;90.90;;;;;;2046203;28;20233;-68
2023/06/03 04:06:39;;;;;;;10.63;5.43;;;9.90;91.00;;;;;;2054933;28;20265;-68
2023/06/03 04:07:40;;;;;;;6.05;4.90;;;9.90;91.20;;;;;;2052094;28;20224;-68
2023/06/03 04:08:45;;;;;;;7.05;4.63;;;10.00;91.30;;;;;;2051185;28;20314;-68
2023/06/03 04:09:47;;;;;;;6.88;5.15;;;9.90;91.20;;;;;;2058081;28;20230;-70
2023/06/03 04:10:48;;;;;;;9.57;5.63;;;10.00;91.20;;;;;;2062726;28;20712;-68
2023/06/03 04:11:49;;;;;;;9.10;5.80;;;10.00;91.10;;;;;;2060145;28;20236;-67
2023/06/03 04:12:50;;;;;;;10.93;5.50;;;10.10;91.00;;;;;;2048799;28;20690;-68
2023/06/03 04:13:52;;;;;;;10.02;5.97;;;10.00;91.30;;;;;;2060399;28;20230;-67
2023/06/03 04:14:53;;;;;;;8.50;5.45;;;10.00;91.40;;;;;;2057433;28;20252;-69
2023/06/03 04:15:54;;;;;;;10.00;5.13;;;10.00;91.60;;;;;;2063878;28;20228;-68
2023/06/03 04:16:57;;;;;;;7.87;5.57;;;10.00;92.30;;;;;;2046259;28;20237;-68
2023/06/03 04:18:00;;;;;;;8.90;5.22;;;10.00;91.80;;;;;;2055166;28;20311;-69
2023/06/03 04:19:03;;;;;;;9.02;5.70;;;10.00;92.10;;;;;;2045425;28;20226;-69
2023/06/03 04:20:41;;;;;;;8.10;5.13;;;10.00;91.50;;;;;;2048239;28;20183;-69
2023/06/03 04:21:42;;;;;;;12.77;5.07;;;10.10;91.30;;;;;;2053439;28;20228;-68
2023/06/03 04:22:42;;;;;;;8.88;4.93;;;10.20;91.20;;;;;;2054502;28;20698;-68
2023/06/03 04:23:43;;;;;;;10.53;5.43;;;10.10;91.10;;;;;;2058550;28;20236;-68
2023/06/03 04:24:44;;;;;;;6.20;5.27;;;10.10;91.00;;;;;;2055613;28;20241;-68
2023/06/03 04:25:47;;;;;;;9.32;5.05;;;10.10;91.00;;;;;;2053086;28;20236;-68
2023/06/03 04:26:49;;;;;;;10.25;5.47;;;10.10;91.00;;;;;;2061772;28;20225;-68
2023/06/03 04:27:50;;;;;;;7.20;4.95;;;10.20;90.80;;;;;;2058931;28;20233;-69
2023/06/03 04:28:50;;;;;;;7.33;5.63;;;10.20;90.60;;;;;;2068352;28;20274;-68
2023/06/03 04:29:52;;;;;;;6.57;5.20;;;10.20;90.70;;;;;;2065880;28;20691;-68
2023/06/03 04:30:53;;;;;;;7.60;5.75;;;10.30;90.70;;;;;;2050775;28;20273;-68
2023/06/03 04:31:54;;;;;;;8.80;5.78;;;10.30;90.80;;;;;;2051257;28;20349;-68
2023/06/03 04:32:55;;;;;;;9.73;5.03;;;10.30;90.60;;;;;;2058937;28;20279;-68
2023/06/03 04:33:56;;;;;;;10.88;5.65;;;10.30;90.70;;;;;;2061058;28;20242;-68
2023/06/03 04:34:57;;;;;;;9.03;5.23;;;10.30;90.70;;;;;;2057093;28;20238;-68
2023/06/03 04:35:58;;;;;;;10.77;5.67;;;10.50;90.60;;;;;;2059733;28;20324;-68
2023/06/03 04:36:58;;;;;;;9.77;5.03;;;10.40;90.30;;;;;;2050701;28;20256;-68
2023/06/03 04:37:59;;;;;;;7.13;5.17;;;10.40;90.00;;;;;;2045810;29;20372;-68
2023/06/03 04:39:04;;;;;;;8.40;5.10;;;10.30;90.20;;;;;;2054039;28;20256;-69
2023/06/03 04:40:08;;;;;;;7.68;4.82;;;10.30;90.40;;;;;;2056060;28;20193;-69
2023/06/03 04:41:14;;;;;;;9.75;5.35;;;10.40;90.40;;;;;;2063633;28;20272;-68
2023/06/03 04:42:15;;;;;;;8.85;5.10;;;10.40;90.30;;;;;;2055943;28;20288;-69
2023/06/03 04:43:19;;;;;;;8.60;5.50;;;10.40;90.30;;;;;;2056849;28;20236;-69
2023/06/03 04:44:21;;;;;;;9.80;5.50;;;10.50;95.60;;;;;;2057814;28;20256;-66
2023/06/03 04:45:23;;;;;;;10.80;5.60;;;10.40;90.40;;;;;;2062585;28;20241;-67
2023/06/03 04:46:29;;;;;;;8.98;5.35;;;10.40;90.60;;;;;;2062941;28;20233;-67
2023/06/03 04:47:29;;;;;;;9.40;5.40;;;10.40;90.90;;;;;;2058143;28;20743;-67
2023/06/03 04:48:30;;;;;;;8.53;5.17;;;10.40;90.80;;;;;;2055803;28;20240;-67
2023/06/03 04:49:32;;;;;;;8.43;5.73;;;10.40;90.60;;;;;;2054849;28;20693;-67
2023/06/03 04:50:35;;;;;;;6.20;5.35;;;10.50;90.30;;;;;;2058886;28;20324;-67
2023/06/03 04:51:36;;;;;;;7.18;5.65;;;10.50;90.50;;;;;;2059546;28;20599;-67
2023/06/03 04:52:37;;;;;;;9.20;5.20;;;10.40;90.60;;;;;;2055414;28;20235;-67
2023/06/03 04:53:40;;;;;;;6.23;5.37;;;10.50;90.40;;;;;;2050405;28;20251;-67
2023/06/03 04:54:42;;;;;;;9.43;5.13;;;10.50;90.80;;;;;;2047509;28;20772;-67
2023/06/03 04:55:44;;;;;;;8.38;5.28;;;10.40;90.10;;;;;;2055155;28;21032;-67
2023/06/03 04:56:47;;;;;;;11.68;6.07;;;10.40;90.70;;;;;;2053555;28;20226;-68
2023/06/03 04:57:50;;;;;;;9.30;5.75;;;10.40;90.30;;;;;;2058619;28;20240;-68
2023/06/03 04:58:55;;;;;;;8.77;5.85;;;10.50;90.20;;;;;;2062339;28;20230;-68
2023/06/03 04:59:55;;;;;;;6.35;4.68;;;10.50;90.10;;;;;;2067483;28;20248;-68
2023/06/03 05:00:56;;;;;;;11.17;5.83;;;10.50;90.20;;;;;;2062330;28;20234;-68
2023/06/03 05:01:58;;;;;;;6.13;5.03;;;10.50;90.40;;;;;;2059067;28;20237;-68
2023/06/03 05:03:01;;;;;;;8.65;5.60;;;10.40;90.40;;;;;;2055309;28;20217;-70
2023/06/03 05:04:02;;;;;;;10.63;5.93;;;10.40;90.70;;;;;;2062221;28;20192;-68
2023/06/03 05:05:03;;;;;;;9.63;5.70;;;10.50;90.70;;;;;;2054524;28;20198;-68
2023/06/03 05:06:10;;;;;;;6.88;4.85;;;10.50;90.70;;;;;;2055403;28;20196;-68
2023/06/03 05:07:11;;;;;;;11.43;5.90;;;10.50;90.40;;;;;;2062817;28;20197;-68
2023/06/03 05:08:12;;;;;;;8.60;5.37;;;10.60;90.50;;;;;;2058665;28;20183;-68
2023/06/03 05:09:13;;;;;;;9.88;6.00;;;10.50;90.50;;;;;;2058648;28;20194;-68
2023/06/03 05:10:14;;;;;;;7.85;6.32;;;10.50;90.40;;;;;;2067940;28;20244;-68
2023/06/03 05:11:16;;;;;;;13.57;6.20;;;10.90;95.30;;;;;;2059879;28;20749;-68
2023/06/03 05:12:18;;;;;;;12.50;4.97;;;10.90;90.40;;;;;;2043933;28;20647;-68
2023/06/03 05:13:20;;;;;;;11.60;5.32;;;10.70;90.20;;;;;;2052051;28;21150;-68
2023/06/03 05:14:22;;;;;;;9.43;5.25;;;10.70;95.00;;;;;;2059990;28;20376;-67
2023/06/03 05:15:23;;;;;;;9.23;5.65;;;10.60;90.10;;;;;;2054608;28;20233;-68
2023/06/03 05:16:24;;;;;;;8.23;5.80;;;10.70;90.00;;;;;;2055127;28;20234;-68
2023/06/03 05:17:24;;;;;;;10.13;5.25;;;10.80;89.70;;;;;;2062440;28;20245;-68
2023/06/03 05:18:25;;;;;;;8.03;5.80;;;10.90;88.40;;;;;;2057082;28;20380;-68
2023/06/03 05:19:26;;;;;;;8.32;5.00;;;11.00;88.10;;;;;;2058701;28;20234;-68
2023/06/03 05:20:28;;;;;;;9.20;5.20;;;11.20;88.40;;;;;;2057844;28;20238;-68
2023/06/03 05:21:29;;;;;;;11.95;5.40;;;11.00;88.60;;;;;;2063155;28;20226;-68
2023/06/03 05:22:30;;;;;;;7.53;4.87;;;11.10;89.10;;;;;;2067532;28;20252;-68
2023/06/03 05:23:31;;;;;;;10.77;5.00;;;11.00;89.40;;;;;;2055781;28;20300;-68
2023/06/03 05:24:31;;;;;;;7.43;5.03;;;11.00;89.60;;;;;;2060191;28;20644;-69
2023/06/03 05:25:32;;;;;;;8.57;6.10;;;11.10;89.40;;;;;;2055779;28;20245;-69